Terminal Aerodrome Forecast
Issued by NWS Wilmington, NC

Home | Current Version | Previous Version | Text Only | Print | Product List | Glossary On
Versions: 1 2 3 4 5 6 7 8 9 10 11 12 13 14 15 16 17 18 19 20 21 22 23 24 25 26
000
FTUS42 KILM 250500
TAFMYR
TAF
KMYR 250528Z 2506/2606 24011KT P6SM SCT010 BKN035 OVC100
      TEMPO 2506/2508 BKN010
     FM250800 27012G20KT P6SM VCSH BKN025 OVC100
     FM250900 27012KT P6SM SCT025 OVC100
     FM251300 29010KT P6SM SCT050 BKN100
     FM251700 30010KT P6SM SKC
     FM260000 33004KT P6SM SKC
      AMD LTD TO CLD VIS AND WIND TIL 251100=

USA.gov is the U.S. government's official web portal to all federal, state and local government web resources and services.